Time;durP1;ratioP1;P1;durP2;ratioP2;P2;SDS_P1;SDS_P2;PMS_P1;PMS_P2;Temp;Humidity;BMP_temperature;BMP_pressure;BME280_temperature;BME280_humidity;BME280_pressure;Samples;Min_cycle;Max_cycle;Signal;HPM_P1;HPM_P2
2024/02/13 07:43:33;;;;;;;5.72;2.97;;;;;;;7.05;97.30;100688.28;6207227;23;20071;-87
2024/02/13 07:46:05;;;;;;;5.78;3.20;;;;;;;7.23;96.65;100689.69;6234199;23;20015;-87
2024/02/13 07:48:37;;;;;;;9.05;3.60;;;;;;;7.11;97.45;100695.78;6230676;23;20016;-88
2024/02/13 07:51:05;;;;;;;5.70;2.70;;;;;;;7.22;96.86;100693.47;6204539;23;20427;-88
2024/02/13 07:53:34;;;;;;;5.32;2.63;;;;;;;7.14;97.28;100689.00;6253975;23;20004;-87
2024/02/13 07:56:05;;;;;;;8.43;3.50;;;;;;;7.06;97.33;100698.69;6205742;23;20008;-88
2024/02/13 07:58:44;;;;;;;7.50;2.92;;;;;;;6.95;98.05;100700.19;6206269;23;20350;-88
2024/02/13 08:01:10;;;;;;;5.40;3.15;;;;;;;7.19;97.75;100710.19;6205253;23;20023;-88
2024/02/13 08:03:37;;;;;;;7.20;3.38;;;;;;;7.29;96.60;100705.22;6226922;23;20381;-87
2024/02/13 08:06:12;;;;;;;7.07;2.80;;;;;;;7.31;96.52;100707.56;6228529;23;20143;-88
2024/02/13 08:08:38;;;;;;;9.63;3.03;;;;;;;7.40;96.50;100715.50;6199134;23;20060;-88
2024/02/13 08:11:04;;;;;;;8.80;4.03;;;;;;;7.50;96.48;100715.06;6223376;23;20004;-88
2024/02/13 08:13:30;;;;;;;6.05;3.10;;;;;;;7.51;96.28;100714.72;6253988;23;20042;-88
2024/02/13 08:15:58;;;;;;;4.53;3.05;;;;;;;7.64;97.52;100721.69;6228134;23;20098;-87
2024/02/13 08:18:27;;;;;;;6.30;3.03;;;;;;;7.82;97.41;100716.91;6203588;23;20485;-88
2024/02/13 08:20:55;;;;;;;7.43;3.78;;;;;;;8.14;96.34;100716.00;6229487;23;20350;-87
2024/02/13 08:23:29;;;;;;;9.07;3.30;;;;;;;8.16;95.13;100717.25;6231868;23;20094;-88
2024/02/13 08:25:55;;;;;;;7.38;2.80;;;;;;;8.20;94.33;100723.50;6242142;23;20008;-88
2024/02/13 08:28:21;;;;;;;4.47;2.97;;;;;;;8.18;94.03;100728.44;6205954;23;20058;-87
2024/02/13 08:30:50;;;;;;;7.35;3.75;;;;;;;8.13;94.64;100728.63;6231321;23;20019;-88
2024/02/13 08:33:16;;;;;;;7.00;3.28;;;;;;;8.13;94.83;100733.22;6231415;23;20432;-88
2024/02/13 08:35:42;;;;;;;8.63;3.97;;;;;;;8.12;94.06;100735.13;6229523;23;20020;-88
2024/02/13 08:38:10;;;;;;;10.77;3.42;;;;;;;8.11;94.29;100730.06;6231956;23;20007;-88
2024/02/13 08:40:35;;;;;;;7.25;3.90;;;;;;;8.23;94.63;100726.63;6268704;23;20067;-87
2024/02/13 08:46:07;;;;;;;10.43;3.33;;;;;;;8.28;93.82;100735.25;6247779;23;20008;-88
2024/02/13 08:48:46;;;;;;;10.27;4.05;;;;;;;8.50;92.90;100736.66;6232366;23;20027;-88
2024/02/13 08:51:24;;;;;;;8.07;3.20;;;;;;;8.50;91.93;100742.03;6268710;23;20536;-88
2024/02/13 08:53:53;;;;;;;11.48;3.78;;;;;;;8.57;92.02;100743.06;6231521;23;20019;-88
2024/02/13 08:56:18;;;;;;;13.38;3.05;;;;;;;8.52;92.40;100737.91;6262700;23;20000;-88
2024/02/13 08:58:44;;;;;;;7.53;3.60;;;;;;;8.54;91.96;100741.03;6235998;23;20015;-88
2024/02/13 09:01:27;;;;;;;8.75;2.63;;;;;;;8.60;91.28;100739.69;6268901;23;20008;-87
2024/02/13 09:03:53;;;;;;;7.88;2.90;;;;;;;8.46;91.47;100733.88;6281709;23;20007;-89
2024/02/13 09:06:21;;;;;;;7.90;3.65;;;;;;;8.46;92.56;100736.56;6270109;23;19989;-89
2024/02/13 09:08:49;;;;;;;11.07;3.78;;;;;;;8.68;91.49;100748.72;6265703;22;20016;-88
2024/02/13 09:11:26;;;;;;;10.18;3.03;;;;;;;8.84;90.02;100742.31;6236544;23;20012;-87
2024/02/13 09:13:57;;;;;;;4.85;3.40;;;;;;;8.70;90.63;100736.53;6263077;23;20028;-88
2024/02/13 09:16:25;;;;;;;5.55;3.22;;;;;;;8.86;89.94;100745.44;6262047;23;20012;-88
2024/02/13 09:18:54;;;;;;;11.20;3.78;;;;;;;8.91;88.39;100749.78;6261719;23;19997;-88
2024/02/13 09:21:23;;;;;;;9.52;3.60;;;;;;;8.77;89.62;100749.34;6210890;23;20016;-88
2024/02/13 09:23:54;;;;;;;6.80;2.92;;;;;;;8.83;90.13;100748.00;6234142;23;20003;-88
2024/02/13 09:26:30;;;;;;;7.07;3.28;;;;;;;8.85;89.67;100753.81;6260127;23;20039;-89
2024/02/13 09:29:00;;;;;;;9.98;3.90;;;;;;;8.94;89.76;100751.78;6261170;23;20012;-89
2024/02/13 09:31:35;;;;;;;5.82;2.88;;;;;;;8.94;90.05;100751.78;6262576;23;20012;-89
2024/02/13 09:34:01;;;;;;;7.70;3.75;;;;;;;9.15;89.21;100754.28;6235207;23;20043;-89
2024/02/13 09:36:30;;;;;;;7.72;3.00;;;;;;;9.21;89.15;100751.00;6234444;23;20008;-89
2024/02/13 09:38:58;;;;;;;9.85;3.03;;;;;;;9.23;88.50;100764.88;6259830;23;20008;-89
2024/02/13 09:41:23;;;;;;;10.55;3.30;;;;;;;9.30;87.79;100751.63;6261261;23;20019;-87
2024/02/13 09:43:49;;;;;;;9.30;3.05;;;;;;;9.39;87.12;100762.25;6242156;23;20007;-89
2024/02/13 09:46:16;;;;;;;6.55;3.00;;;;;;;9.40;87.03;100761.88;6259309;23;20127;-89
2024/02/13 09:48:46;;;;;;;5.63;2.97;;;;;;;9.41;87.48;100768.81;6230544;23;20401;-88
2024/02/13 09:51:17;;;;;;;6.43;2.92;;;;;;;9.42;86.56;100767.72;6233543;23;20044;-89
2024/02/13 09:53:48;;;;;;;8.38;3.90;;;;;;;9.60;85.46;100778.94;6269312;23;20097;-89
2024/02/13 09:56:15;;;;;;;8.60;3.30;;;;;;;9.49;86.31;100767.88;6234377;23;20015;-89
2024/02/13 09:58:46;;;;;;;6.95;2.80;;;;;;;9.56;86.62;100776.13;6268640;23;19996;-88
2024/02/13 10:01:12;;;;;;;11.80;4.38;;;;;;;9.59;86.30;100782.72;6233527;23;20039;-87
2024/02/13 10:03:41;;;;;;;10.13;3.53;;;;;;;9.72;85.25;100786.91;6267055;23;20000;-88
2024/02/13 10:06:07;;;;;;;9.52;3.75;;;;;;;9.67;85.12;100789.84;6230466;23;20039;-88
2024/02/13 10:08:37;;;;;;;9.90;4.10;;;;;;;9.83;84.06;100788.72;6265578;23;20076;-88
2024/02/13 10:11:08;;;;;;;11.65;3.78;;;;;;;9.66;84.57;100788.28;6256092;23;20083;-88
2024/02/13 10:13:39;;;;;;;8.10;3.95;;;;;;;9.70;84.30;100800.69;6256717;23;20031;-88
2024/02/13 10:16:19;;;;;;;9.48;3.92;;;;;;;9.63;85.44;100794.34;6229561;23;20069;-88
2024/02/13 10:18:48;;;;;;;7.88;3.47;;;;;;;9.85;84.23;100801.84;6231354;23;20028;-88
2024/02/13 10:21:14;;;;;;;5.85;3.13;;;;;;;9.82;84.67;100805.22;6267760;23;20004;-88
2024/02/13 10:23:39;;;;;;;9.82;3.08;;;;;;;9.84;84.37;100798.38;6224490;23;20022;-88
2024/02/13 10:26:10;;;;;;;5.53;3.13;;;;;;;9.77;83.17;100800.91;6267154;23;20122;-88
2024/02/13 10:28:54;;;;;;;6.93;3.58;;;;;;;9.61;84.51;100792.00;6268404;23;20007;-89
2024/02/13 10:31:24;;;;;;;10.30;3.90;;;;;;;9.70;84.54;100794.53;6253525;23;20118;-87
2024/02/13 10:33:50;;;;;;;5.90;3.17;;;;;;;9.75;84.27;100788.91;6227674;23;20458;-88
2024/02/13 10:36:16;;;;;;;9.63;3.28;;;;;;;9.66;84.44;100794.44;6257228;23;20301;-88
2024/02/13 10:38:46;;;;;;;11.75;4.00;;;;;;;9.97;83.02;100796.38;6221697;23;20020;-89
2024/02/13 10:41:21;;;;;;;5.18;3.25;;;;;;;9.90;83.10;100796.22;6258056;23;20012;-89
2024/02/13 10:44:03;;;;;;;8.35;2.97;;;;;;;10.03;82.07;100800.38;6232358;23;20012;-89
2024/02/13 10:46:36;;;;;;;7.25;3.55;;;;;;;9.87;82.66;100800.38;6248634;23;20451;-89
2024/02/13 10:49:15;;;;;;;5.57;3.08;;;;;;;9.79;82.33;100814.00;6198563;23;20007;-88
2024/02/13 10:51:41;;;;;;;9.23;3.47;;;;;;;9.77;81.98;100805.50;6209257;23;20066;-89
2024/02/13 10:54:09;;;;;;;9.32;3.47;;;;;;;9.77;82.75;100802.81;6210245;23;20023;-89
2024/02/13 10:56:37;;;;;;;5.47;3.38;;;;;;;9.88;82.67;100791.19;6204066;23;20394;-89
2024/02/13 10:59:06;;;;;;;9.85;3.97;;;;;;;10.01;82.62;100803.41;6231288;23;20007;-88
2024/02/13 11:01:37;;;;;;;5.13;3.30;;;;;;;10.02;81.27;100799.63;6252017;23;20292;-88
2024/02/13 11:04:06;;;;;;;9.25;4.07;;;;;;;10.07;81.98;100793.16;6257004;23;20091;-89
2024/02/13 11:06:33;;;;;;;7.38;3.60;;;;;;;10.14;80.91;100798.00;6252010;23;20011;-88
2024/02/13 11:08:58;;;;;;;6.53;3.38;;;;;;;10.16;81.33;100799.22;6194755;23;20019;-88
2024/02/13 11:11:25;;;;;;;9.18;3.65;;;;;;;10.26;81.05;100795.97;6247070;23;20004;-88
2024/02/13 11:13:51;;;;;;;7.20;3.40;;;;;;;10.34;80.30;100803.09;6220050;23;20350;-88
2024/02/13 11:16:18;;;;;;;7.07;3.50;;;;;;;10.66;80.06;100799.22;6219579;23;20019;-88
2024/02/13 11:18:49;;;;;;;12.30;5.07;;;;;;;10.77;79.36;100804.84;6226533;23;20012;-89
2024/02/13 11:21:20;;;;;;;14.27;5.22;;;;;;;11.04;79.44;100801.19;6248343;23;20016;-89
2024/02/13 11:23:53;;;;;;;11.80;4.32;;;;;;;11.29;78.28;100801.66;6244753;23;20008;-89
2024/02/13 11:26:19;;;;;;;9.05;3.80;;;;;;;11.30;78.26;100795.94;6244432;23;20442;-89
2024/02/13 11:28:46;;;;;;;9.05;3.83;;;;;;;11.17;76.99;100799.91;6218415;23;20027;-88
2024/02/13 11:31:15;;;;;;;11.85;4.22;;;;;;;11.23;76.36;100795.00;6219342;23;20000;-89
2024/02/13 11:34:17;;;;;;;11.30;4.45;;;;;;;11.20;77.11;100801.13;6246519;23;20015;-88
2024/02/13 11:37:01;;;;;;;7.53;3.50;;;;;;;11.33;76.42;100799.81;6246038;23;20020;-88
2024/02/13 11:43:26;;;;;;;8.82;3.92;;;;;;;10.98;77.08;100799.91;6256158;23;20078;-89
2024/02/13 11:46:00;;;;;;;8.75;3.05;;;;;;;10.63;78.19;100802.59;6218466;23;20020;-89
2024/02/13 11:48:38;;;;;;;8.70;4.32;;;;;;;10.75;77.86;100801.72;6195156;23;20028;-88
2024/02/13 11:51:22;;;;;;;10.30;4.15;;;;;;;10.79;77.11;100800.66;6196560;23;20078;-88
2024/02/13 11:53:51;;;;;;;8.07;4.32;;;;;;;10.69;78.19;100803.09;6219682;23;20019;-88
2024/02/13 11:56:26;;;;;;;10.40;4.38;;;;;;;10.82;77.61;100793.78;6230613;23;20019;-89
2024/02/13 11:59:07;;;;;;;6.65;4.07;;;;;;;10.77;77.90;100800.22;6220812;23;20031;-89
2024/02/13 12:01:48;;;;;;;8.85;3.58;;;;;;;10.64;77.81;100796.09;6218768;23;20019;-89
2024/02/13 12:15:10;;;;;;;9.25;3.55;;;;;;;10.18;80.02;100815.00;6245672;23;20016;-88
2024/02/13 12:17:33;;;;;;;9.30;3.95;;;;;;;10.06;80.96;100815.06;6238561;23;20112;-89
2024/02/13 12:20:39;;;;;;;;;;;;;;;;;;;;;
2024/02/13 12:23:32;;;;;;;6.97;4.13;;;;;;;10.33;80.11;100820.38;6244938;23;20032;-89
2024/02/13 12:26:08;;;;;;;11.95;4.53;;;;;;;10.32;80.88;100809.94;6192712;23;20008;-89
2024/02/13 12:29:18;;;;;;;7.22;3.80;;;;;;;10.39;81.31;100812.81;6218407;23;20115;-89
2024/02/13 12:32:38;;;;;;;7.05;4.35;;;;;;;10.41;80.40;100819.41;6205756;23;20091;-89
2024/02/13 12:35:50;;;;;;;6.82;3.05;;;;;;;10.17;83.28;100818.81;6191720;23;20047;-89
2024/02/13 12:42:39;;;;;;;6.00;3.30;;;;;;;10.10;83.19;100824.81;6131602;23;19969;-87
2024/02/13 12:53:52;;;;;;;;;;;;;;;;;;;;;
2024/02/13 13:01:21;;;;;;;;;;;;;;;;;;;;;
2024/02/13 13:08:39;;;;;;;;;;;;;;;;;;;;;
